Racecast

Shiner

Difficulty:i -2.7% (3218m, the usual distance here) · 636 results · 478 athletes

All 3218m 5000m 3200m

Distances raced here

DistanceDifficultyiResults FirstLast
3218m -2.7% 331 2020-09-26 2020-10-26
5000m -0.8% 291 2020-09-26 2020-10-26
3200m -2.7% 14 2012-10-06 2012-10-06

Best speed ratings all distances

Boys

#AthleteRatingi TimeDistSchoolDate
1 Tony (Antonio) Martinez 125.5 16:29 5000m Louise (TX) 2020-10-03
2 Colby Kurtz 124.3 16:39 5000m East Bernard (TX) 2020-10-03
3 Nicholas Rodriguez 122.5 16:54 5000m St Joseph (Victoria) (TX) 2020-10-03
4 Marc Mendoza 121.5 17:02 5000m Boling (TX) 2020-10-03
5 Alan Baez 120.8 17:24 5000m Ganado (AZ) 2020-09-26
6 Aaron Wilfert 120.3 17:12 5000m Vanderbilt Industrial (TX) 2020-10-03
7 Andrew Pollard 120.3 17:28 5000m Needville (TX) 2020-09-26
8 Julian Diaz 119.8 17:16 5000m Palacios (TX) 2020-10-03
9 Daniel Zepeda 119.8 17:32 5000m Altair Rice (TX) 2020-09-26
10 Kane Reyes 119.7 17:33 5000m Comal Canyon Lake (TX) 2020-09-26
11 Lawson Meiers 119.4 17:20 5000m Bellville (TX) 2020-10-03
12 Edgar Mendiola 116.3 17:48 5000m Moulton (TX) 2020-10-03
13 Ross Hough 115.0 18:00 5000m Boling (TX) 2020-10-03
14 Isaac Aparicio 114.1 18:25 5000m Palacios (TX) 2020-09-26
15 Barrett Whitley 114.0 18:09 5000m East Bernard (TX) 2020-10-03
16 Samuel Aparicio 114.0 18:09 5000m Palacios (TX) 2020-10-03
17 Juan Aguilar 113.7 18:12 5000m Bellville (TX) 2020-10-03
18 Oscar Guerrero 113.3 18:16 5000m Flatonia (TX) 2020-10-03
19 Nikolas Knight 113.3 18:16 5000m Geronimo Navarro (TX) 2020-10-03
20 Duke Sodek 113.1 18:18 5000m Flatonia (TX) 2020-10-03
21 Isaac Mahan 113.1 18:18 5000m St Joseph (Victoria) (TX) 2020-10-03
22 Leo (Leonardo) Moreno 113.1 18:18 5000m Gonzales (TX) 2020-10-03
23 Estaban Maldonado 113.1 18:18 5000m Vanderbilt Industrial (TX) 2020-10-03
24 Jesus Panchito 113.1 18:35 5000m Needville (TX) 2020-09-26
25 Seth Migura 112.8 18:21 5000m Hallettsville (TX) 2020-10-03
26 Tanner Sanchez 112.8 18:21 5000m Geronimo Navarro (TX) 2020-10-03
27 Josh Amick 112.6 18:23 5000m La Grange (TX) 2020-10-03
28 Adan Alvarez 112.0 18:29 5000m Boling (TX) 2020-10-03
29 Jordan Todd 111.9 18:30 5000m Boling (TX) 2020-10-03
30 Alejandro Reyna 111.6 18:33 5000m Gonzales (TX) 2020-10-03
31 Lucas Falcon 111.6 18:50 5000m Victoria East (TX) 2020-09-26
32 Josafat Galvan 110.3 18:46 5000m Altair Rice (TX) 2020-10-03
33 Arturo Maldonado 110.3 18:46 5000m Vanderbilt Industrial (TX) 2020-10-03
34 Jose Saucedo 110.3 18:46 5000m Vanderbilt Industrial (TX) 2020-10-03
35 James Rios 110.3 18:46 5000m First Baptist Academy (Univ City) (TX) 2020-10-03
36 Chris Kopecky 110.2 18:47 5000m East Bernard (TX) 2020-10-03
37 Jacoby Sanchez 110.0 18:49 5000m Vanderbilt Industrial (TX) 2020-10-03
38 Deric Torres 109.4 18:55 5000m Nordheim (TX) 2020-10-03
39 Gabriel Rangel 109.2 18:57 5000m Geronimo Navarro (TX) 2020-10-03
40 Joaquin Ynfante 109.2 19:15 5000m Victoria East (TX) 2020-09-26
41 Matthew DeCarvalho 109.1 18:58 5000m Bellville (TX) 2020-10-03
42 Andrew Acosta 109.0 19:17 5000m Palacios (TX) 2020-09-26
43 Angel Hernandez 108.9 19:00 5000m La Grange (TX) 2020-10-03
44 Ethan Fontanez 108.9 19:18 5000m Victoria East (TX) 2020-09-26
45 Abraham Garcia 108.8 19:01 5000m Boling (TX) 2020-10-03
46 Kaleb Rivera 108.7 19:02 5000m East Bernard (TX) 2020-10-03
47 Joshua (Josh) Griffin 108.6 19:03 5000m Hallettsville (TX) 2020-10-03
48 Jonathan Posada 108.5 19:22 5000m Altair Rice (TX) 2020-09-26
49 Andres Torres 108.4 19:05 5000m El Campo (TX) 2020-10-03
50 Austin Stoecker 108.3 19:24 5000m Palacios (TX) 2020-09-26
51 Erick Aguilar 108.1 19:09 5000m Bellville (TX) 2020-10-03
52 Cade Janacek 108.1 19:09 5000m East Bernard (TX) 2020-10-03
53 Jo Senta 108.0 19:10 5000m Palacios (TX) 2020-10-03
54 Nick Waters 107.8 19:29 5000m Needville (TX) 2020-09-26
55 Kejun Wilson 107.7 19:13 5000m Altair Rice (TX) 2020-10-03
56 Rylan Schindler 107.6 19:14 5000m Hallettsville (TX) 2020-10-03
57 Yahir Santiago 107.6 19:32 5000m Needville (TX) 2020-09-26
58 Jo Stockom 107.5 19:15 5000m Palacios (TX) 2020-10-03
59 Richard Garrison 107.4 19:16 5000m Sweeny (TX) 2020-10-03
60 Daniel Maldonado 107.3 19:17 5000m Vanderbilt Industrial (TX) 2020-10-03

View all →

Girls

#AthleteRatingi TimeDistSchoolDate
1 Taylor Limbaugh 128.0 11:45 3218m Schulenburg (TX) 2020-10-03
2 Julianna Davis 127.8 11:46 3218m St Paul (Shiner Catholic) (TX) 2020-10-03
3 Cadence Patterson 124.6 12:15 3218m Comal Canyon Lake (TX) 2020-09-26
4 Rylee Vancura 124.1 12:07 3218m Shiner (TX) 2020-10-03
5 Seryna Garza 124.1 12:07 3218m St Paul (Shiner Catholic) (TX) 2020-10-03
6 Brooke Cerny 124.1 12:07 3218m St Paul (Shiner Catholic) (TX) 2020-10-03
7 Kenna Gibson 124.0 12:08 3218m Boling (TX) 2020-10-03
8 Olivia Etzler 123.6 12:10 3218m Hallettsville (TX) 2020-10-03
9 Jenna McKee 123.3 12:12 3218m Yoakum (TX) 2020-10-03
10 Emma Alexander 121.6 12:22 3218m East Bernard (TX) 2020-10-03
11 Isabella Roth 121.5 12:34 3218m Victoria East (TX) 2020-09-26
12 Bailey Petras 119.1 12:38 3218m Yoakum (TX) 2020-10-03
13 Mari Grosenbacher 118.6 12:41 3218m Shiner (TX) 2020-10-03
14 Lauren Theriot 118.4 12:42 3218m St Joseph (Victoria) (TX) 2020-10-03
15 Maria Vasquez 118.0 12:45 3218m Gonzales (TX) 2020-10-03
16 Kyana Hailey 117.7 12:47 3218m Altair Rice (TX) 2020-10-03
17 Stephanie Reyna 117.5 12:48 3218m Gonzales (TX) 2020-10-03
18 Genna (Genevieve) Kelley 116.8 12:53 3218m Gonzales (TX) 2020-10-03
19 Haley Ray 116.6 12:54 3218m Altair Rice (TX) 2020-10-03
20 Rachel Kubenka 116.4 13:07 3218m Needville (TX) 2020-09-26
21 Kassandra Mendez 115.7 13:00 3218m Gonzales (TX) 2020-10-03
22 Emilee Schneider 115.5 13:13 3218m Van Vleck (TX) 2020-09-26
23 Anna Witte 115.1 13:04 3218m East Bernard (TX) 2020-10-03
24 Emma Etzler 114.7 13:07 3218m Hallettsville (TX) 2020-10-03
25 Allyson Guerrero 114.5 13:08 3218m Sealy (TX) 2020-10-03
26 Paige Brown 114.5 13:08 3218m St Paul (Shiner Catholic) (TX) 2020-10-03
27 Caleigh Boscamp 114.2 13:10 3218m Gonzales (TX) 2020-10-03
28 Annabelle Williams 114.2 13:10 3218m Sealy (TX) 2020-10-03
29 Vanessa Garcia 114.1 13:11 3218m Geronimo Navarro (TX) 2020-10-03
30 Bailey Lopez 114.0 13:12 3218m Sealy (TX) 2020-10-03
31 Cora Motley 113.7 13:14 3218m Vanderbilt Industrial (TX) 2020-10-03
32 Krisanta Esquivel 113.5 13:15 3218m Gonzales (TX) 2020-10-03
33 Brooke Turner 113.2 13:17 3218m Yorktown (VA) 2020-10-03
34 Kylah Fishbeck 112.7 13:21 3218m Yoakum (TX) 2020-10-03
35 Tianna Smith 112.5 13:22 3218m Gonzales (TX) 2020-10-03
36 Ellee Sodolak 112.5 13:22 3218m La Grange (TX) 2020-10-03
37 Riley Rainosek 112.5 13:22 3218m Shiner (TX) 2020-10-03
38 Korina Anzualda 112.4 13:23 3218m Yoakum (TX) 2020-10-03
39 Ashlyn Pesek 112.4 13:23 3218m St Paul (Shiner Catholic) (TX) 2020-10-03
40 Faith Villareal 112.0 13:26 3218m Vanderbilt Industrial (TX) 2020-10-03
41 Nataly Flores 111.7 13:40 3218m Needville (TX) 2020-09-26
42 Kylee Bates 111.7 13:28 3218m East Bernard (TX) 2020-10-03
43 Kaylee Martinez 111.6 13:29 3218m Flatonia (TX) 2020-10-03
44 Natalia Martinez 111.4 13:30 3218m Gonzales (TX) 2020-10-03
45 Suzanna Garcia 111.0 13:33 3218m Boling (TX) 2020-10-03
46 Melanie Cabrera 110.9 13:34 3218m Columbus (NE) 2020-10-03
47 Madison Manak 110.9 13:34 3218m Sealy (TX) 2020-10-03
48 Kyleigh Longoria 110.5 13:37 3218m East Bernard (TX) 2020-10-03
49 Breanna Perez 110.3 13:38 3218m El Campo (TX) 2020-10-03
50 Emily Perry 110.3 13:38 3218m Moulton (TX) 2020-10-03
51 Cortney Tuch 110.2 13:51 3218m St Paul (Shiner Catholic) (TX) 2020-09-26
52 Sydney Tijerina 110.2 13:39 3218m East Bernard (TX) 2020-10-03
53 Hayleigh Burns 110.2 13:44 3218m Shiner (TX) 2020-10-26
54 Rachel Wittig 110.1 13:40 3218m Boling (TX) 2020-10-03
55 Alejandra Avila 109.9 13:41 3218m East Bernard (TX) 2020-10-03
56 Riley Hanley 109.5 13:44 3218m Bellville (TX) 2020-10-03
57 Alexa Torres 109.1 13:47 3218m Flatonia (TX) 2020-10-03
58 Jocelyn Moreno 109.0 13:53 3218m Shiner (TX) 2020-10-26
59 Sierra Rivera 108.7 13:50 3218m Yoakum (TX) 2020-10-03
60 Sierra Hernandez 108.7 13:50 3218m El Campo (TX) 2020-10-03

View all →

Best team performances by rating top-5 average rating, one race, all distances

Boys

#SchoolTop-5 avg DistMeetDate
1 Boling (TX) 113.8 5000m Shiner Comanche Meet 10/3 2020-10-03
2 East Bernard (TX) 113.1 5000m Shiner Comanche Meet 10/3 2020-10-03
3 Vanderbilt Industrial (TX) 112.8 5000m Shiner Comanche Meet 10/3 2020-10-03
4 Bellville (TX) 111.2 5000m Shiner Comanche Meet 10/3 2020-10-03
5 Palacios (TX) 110.9 5000m Shiner Comanche Meet 9/26 2020-09-26
6 Needville (TX) 110.7 5000m Shiner Comanche Meet 9/26 2020-09-26
7 Altair Rice (TX) 109.7 5000m Shiner Comanche Meet 10/3 2020-10-03
8 Geronimo Navarro (TX) 109.5 5000m Shiner Comanche Meet 10/3 2020-10-03
9 Victoria East (TX) 107.4 5000m Shiner Comanche Meet 9/26 2020-09-26
10 Gonzales (TX) 105.9 5000m Shiner Comanche Meet 10/3 2020-10-03
11 Hallettsville (TX) 105.1 5000m Shiner Comanche Meet 10/3 2020-10-03
12 La Grange (TX) 103.5 5000m Shiner Comanche Meet 10/3 2020-10-03
13 St Joseph (Victoria) (TX) 102.3 5000m Shiner Comanche Meet 10/3 2020-10-03
14 St Paul (Shiner Catholic) (TX) 102.2 5000m Shiner Comanche Meet 10/3 2020-10-03
15 Sweeny (TX) 101.3 5000m Shiner Comanche Meet 10/3 2020-10-03
16 Schulenburg (TX) 100.6 5000m Shiner Comanche Meet 10/3 2020-10-03
17 Comal Canyon Lake (TX) 100.0 5000m Shiner Comanche Meet 9/26 2020-09-26
18 Nordheim (TX) 98.2 5000m Shiner Comanche Meet 10/3 2020-10-03
19 Flatonia (TX) 96.5 5000m UIL 2A District 28 2020-10-26
20 Weimar (TX) 96.4 5000m Shiner Comanche Meet 10/3 2020-10-03
21 Sealy (TX) 96.1 5000m Shiner Comanche Meet 10/3 2020-10-03
22 Yoakum (TX) 95.7 5000m Shiner Comanche Meet 10/3 2020-10-03
23 Bloomington (IL) 95.0 5000m Shiner Comanche Meet 10/3 2020-10-03
24 Shiner (TX) 94.5 5000m Shiner Comanche Meet 10/3 2020-10-03
25 Moulton (TX) 92.7 5000m Shiner Comanche Meet 10/3 2020-10-03
26 Fayetteville (AR) 88.2 3200m Shiner 2012-10-06
27 Florence (AL) 85.3 5000m Shiner Comanche Meet 9/26 2020-09-26
28 Van Vleck (TX) 78.8 5000m Shiner Comanche Meet 9/26 2020-09-26

View all →

Girls

#SchoolTop-5 avg DistMeetDate
1 St Paul (Shiner Catholic) (TX) 120.6 3218m Shiner Comanche Meet 10/3 2020-10-03
2 Gonzales (TX) 116.4 3218m Shiner Comanche Meet 10/3 2020-10-03
3 Yoakum (TX) 115.2 3218m Shiner Comanche Meet 10/3 2020-10-03
4 Shiner (TX) 114.8 3218m Shiner Comanche Meet 10/3 2020-10-03
5 East Bernard (TX) 113.8 3218m Shiner Comanche Meet 10/3 2020-10-03
6 Sealy (TX) 111.9 3218m Shiner Comanche Meet 10/3 2020-10-03
7 Boling (TX) 110.7 3218m Shiner Comanche Meet 10/3 2020-10-03
8 Hallettsville (TX) 109.4 3218m Shiner Comanche Meet 10/3 2020-10-03
9 Altair Rice (TX) 109.1 3218m Shiner Comanche Meet 10/3 2020-10-03
10 Needville (TX) 107.9 3218m Shiner Comanche Meet 9/26 2020-09-26
11 Vanderbilt Industrial (TX) 107.1 3218m Shiner Comanche Meet 10/3 2020-10-03
12 Bellville (TX) 106.2 3218m Shiner Comanche Meet 10/3 2020-10-03
13 El Campo (TX) 105.9 3218m Shiner Comanche Meet 10/3 2020-10-03
14 Weimar (TX) 104.3 3218m Shiner Comanche Meet 10/3 2020-10-03
15 La Grange (TX) 104.0 3218m Shiner Comanche Meet 10/3 2020-10-03
16 Moulton (TX) 103.5 3218m Shiner Comanche Meet 10/3 2020-10-03
17 Comal Canyon Lake (TX) 103.0 3218m Shiner Comanche Meet 9/26 2020-09-26
18 Smithville (MO) 102.8 3218m Shiner Comanche Meet 10/3 2020-10-03
19 Columbus (NE) 102.2 3218m Shiner Comanche Meet 9/26 2020-09-26
20 Van Vleck (TX) 102.0 3218m Shiner Comanche Meet 9/26 2020-09-26
21 Marion (IA) 99.5 3218m Shiner Comanche Meet 10/3 2020-10-03
22 St Joseph (Victoria) (TX) 96.9 3218m Shiner Comanche Meet 10/3 2020-10-03
23 Ganado (AZ) 96.8 3218m Shiner Comanche Meet 10/3 2020-10-03
24 Yorktown (VA) 96.6 3218m Shiner Comanche Meet 10/3 2020-10-03
25 Faith Academy (Victoria) (TX) 93.4 3218m Shiner Comanche Meet 9/26 2020-09-26
26 Nixon Smiley (TX) 91.7 3218m Shiner Comanche Meet 9/26 2020-09-26
27 Sweeny (TX) 90.4 3218m Shiner Comanche Meet 10/3 2020-10-03
28 Bloomington (IL) 89.2 3218m UIL 2A District 28 2020-10-26
29 Fayetteville (AR) 85.5 3200m Shiner 2012-10-06

View all →

Meets held here all distances

MeetLast heldDistanceResults
UIL 2A District 28 2020-10-26 3218, 5000 74
Shiner Comanche Meet 10/3 2020-10-03 3218, 5000 378
Shiner Comanche Meet 9/26 2020-09-26 3218, 5000 170
Shiner 2012-10-06 3200 14

View all →